Orlando, Florida
Current Conditions -  °F | °C
As of 12:53 AM on Wednesday 28 Jan 2015 (Local Time) from KORL Reporting Station
Clear Clear  
Wind Chill: 51°   Ceiling: Unl
Heat Index: 51°   Visibility: 10mi
Dew Point: 40°   Wind: 5mph
Humidity: 66%   Direction: 310°NW
Pressure: 30.07"   Gusts: NA
Location:  28.54°N, 81.38°W
Report Text: KORL 280553Z AUTO 31004KT 10SM CLR 11/04 A3007 RMK AO2 SLP185 T01060044 10167 20106 51014
Loading
Personal Weather Stations






























Interactive Weather Map New forecast layout! Learn more

10-Day Weather Forecast

Advertisements
Track Severe Weather on mobile